Clifford, Michigan
Current Conditions -  °F | °C
As of 11:25 AM on Monday 24 Nov 2014 (Local Time) from KCFS Reporting Station
Overcast Overcast  
Wind Chill: 12°   Ceiling: 600
Heat Index: 12°   Visibility: 5mi
Dew Point: 11°   Wind: 6mph
Humidity: 94%   Direction: 200°SSW
Pressure: 29.05"   Gusts: NA
Location:  43.31°N, 83.18°W
Report Text: KCFS 241625Z AUTO 20005KT 5SM BKN006 OVC012 12/11 A2905 RMK AO2
Loading
Personal Weather Stations






























Interactive Weather Map New forecast layout! Learn more

10-Day Weather Forecast

Advertisements
Track Severe Weather on mobile